sensor_id;sensor_type;location;lat;lon;timestamp;pressure;altitude;pressure_sealevel;temperature;humidity
5777;BME280;2914;42.668;23.346;2023-03-19T00:00:07;95031.42;;;5.89;60.63
5777;BME280;2914;42.668;23.346;2023-03-19T00:05:21;95032.98;;;5.78;61.37
5777;BME280;2914;42.668;23.346;2023-03-19T00:10:28;95028.53;;;5.86;61.26
5777;BME280;2914;42.668;23.346;2023-03-19T00:15:35;95021.83;;;5.82;61.63
5777;BME280;2914;42.668;23.346;2023-03-19T00:23:21;95023.47;;;5.90;60.90
5777;BME280;2914;42.668;23.346;2023-03-19T00:28:28;95021.39;;;5.75;61.38
5777;BME280;2914;42.668;23.346;2023-03-19T00:33:36;95009.31;;;5.60;62.13
5777;BME280;2914;42.668;23.346;2023-03-19T00:38:45;95002.71;;;5.54;62.42
5777;BME280;2914;42.668;23.346;2023-03-19T00:43:56;95004.44;;;5.48;62.41
5777;BME280;2914;42.668;23.346;2023-03-19T00:46:26;94998.34;;;5.48;62.48
5777;BME280;2914;42.668;23.346;2023-03-19T00:48:55;95002.92;;;5.51;62.49
5777;BME280;2914;42.668;23.346;2023-03-19T00:51:25;94995.89;;;5.52;62.31
5777;BME280;2914;42.668;23.346;2023-03-19T00:53:54;94995.89;;;5.52;62.17
5777;BME280;2914;42.668;23.346;2023-03-19T00:56:23;94993.59;;;5.47;62.24
5777;BME280;2914;42.668;23.346;2023-03-19T00:58:52;94993.97;;;5.48;62.49
5777;BME280;2914;42.668;23.346;2023-03-19T01:01:23;94993.22;;;5.46;61.97
5777;BME280;2914;42.668;23.346;2023-03-19T01:03:53;94988.84;;;5.39;62.01
5777;BME280;2914;42.668;23.346;2023-03-19T01:06:22;94989.95;;;5.42;62.12
5777;BME280;2914;42.668;23.346;2023-03-19T01:08:51;94989.78;;;5.38;61.95
5777;BME280;2914;42.668;23.346;2023-03-19T01:11:20;94978.73;;;5.28;62.23
5777;BME280;2914;42.668;23.346;2023-03-19T01:13:49;94973.88;;;5.21;62.47
5777;BME280;2914;42.668;23.346;2023-03-19T01:16:18;94983.80;;;5.23;62.75
5777;BME280;2914;42.668;23.346;2023-03-19T01:18:47;94987.23;;;5.24;62.88
5777;BME280;2914;42.668;23.346;2023-03-19T01:21:17;94982.28;;;5.26;63.29
5777;BME280;2914;42.668;23.346;2023-03-19T01:23:46;94974.57;;;5.10;63.92
5777;BME280;2914;42.668;23.346;2023-03-19T01:26:15;94976.61;;;4.85;65.50
5777;BME280;2914;42.668;23.346;2023-03-19T01:31:28;94978.77;;;5.13;64.94
5777;BME280;2914;42.668;23.346;2023-03-19T01:33:57;94970.44;;;4.93;66.07
5777;BME280;2914;42.668;23.346;2023-03-19T01:36:27;94968.99;;;5.02;65.88
5777;BME280;2914;42.668;23.346;2023-03-19T01:38:56;94968.61;;;5.01;66.42
5777;BME280;2914;42.668;23.346;2023-03-19T01:44:25;94963.04;;;4.93;66.41
5777;BME280;2914;42.668;23.346;2023-03-19T01:46:55;94980.03;;;4.93;66.63
5777;BME280;2914;42.668;23.346;2023-03-19T01:49:26;94967.69;;;4.68;67.87
5777;BME280;2914;42.668;23.346;2023-03-19T01:51:56;94967.66;;;4.82;67.22
5777;BME280;2914;42.668;23.346;2023-03-19T01:54:27;94975.54;;;4.61;67.62
5777;BME280;2914;42.668;23.346;2023-03-19T01:57:00;94974.78;;;4.58;67.93
5777;BME280;2914;42.668;23.346;2023-03-19T01:59:31;94976.02;;;4.46;68.73
5777;BME280;2914;42.668;23.346;2023-03-19T02:02:03;94972.16;;;4.58;68.20
5777;BME280;2914;42.668;23.346;2023-03-19T02:07:13;94976.05;;;4.80;67.23
5777;BME280;2914;42.668;23.346;2023-03-19T02:12:27;94971.66;;;4.81;66.74
5777;BME280;2914;42.668;23.346;2023-03-19T02:14:56;94975.98;;;4.74;66.88
5777;BME280;2914;42.668;23.346;2023-03-19T02:17:29;94981.69;;;4.74;66.76
5777;BME280;2914;42.668;23.346;2023-03-19T02:20:00;94974.77;;;4.73;66.67
5777;BME280;2914;42.668;23.346;2023-03-19T02:22:32;94974.39;;;4.72;66.76
5777;BME280;2914;42.668;23.346;2023-03-19T02:25:03;94967.48;;;4.71;66.99
5777;BME280;2914;42.668;23.346;2023-03-19T02:27:33;94976.46;;;4.74;67.35
5777;BME280;2914;42.668;23.346;2023-03-19T02:30:16;94973.27;;;4.76;67.26
5777;BME280;2914;42.668;23.346;2023-03-19T02:32:46;94972.34;;;4.77;67.01
5777;BME280;2914;42.668;23.346;2023-03-19T02:35:15;94970.18;;;4.84;66.98
5777;BME280;2914;42.668;23.346;2023-03-19T02:37:44;94975.58;;;4.81;67.03
5777;BME280;2914;42.668;23.346;2023-03-19T02:42:59;94978.90;;;4.97;66.98
5777;BME280;2914;42.668;23.346;2023-03-19T02:45:30;94982.47;;;4.96;66.66
5777;BME280;2914;42.668;23.346;2023-03-19T02:47:59;94983.13;;;4.92;66.54
5777;BME280;2914;42.668;23.346;2023-03-19T02:50:28;94981.81;;;4.92;66.44
5777;BME280;2914;42.668;23.346;2023-03-19T02:52:58;94980.33;;;4.88;66.71
5777;BME280;2914;42.668;23.346;2023-03-19T02:55:27;94983.53;;;4.86;66.86
5777;BME280;2914;42.668;23.346;2023-03-19T02:57:56;94980.45;;;4.80;67.09
5777;BME280;2914;42.668;23.346;2023-03-19T03:00:25;94977.94;;;4.78;66.93
5777;BME280;2914;42.668;23.346;2023-03-19T03:02:55;94981.51;;;4.70;67.10
5777;BME280;2914;42.668;23.346;2023-03-19T03:05:25;94981.69;;;4.59;67.56
5777;BME280;2914;42.668;23.346;2023-03-19T03:07:54;94985.83;;;4.49;68.47
5777;BME280;2914;42.668;23.346;2023-03-19T03:10:24;94987.88;;;4.44;68.31
5777;BME280;2914;42.668;23.346;2023-03-19T03:12:54;94987.02;;;4.44;68.51
5777;BME280;2914;42.668;23.346;2023-03-19T03:15:23;94985.45;;;4.41;68.66
5777;BME280;2914;42.668;23.346;2023-03-19T03:17:52;94993.92;;;4.45;68.45
5777;BME280;2914;42.668;23.346;2023-03-19T03:20:22;94996.53;;;4.45;68.30
5777;BME280;2914;42.668;23.346;2023-03-19T03:22:52;95003.92;;;4.45;68.20
5777;BME280;2914;42.668;23.346;2023-03-19T03:25:21;95003.99;;;4.44;67.98
5777;BME280;2914;42.668;23.346;2023-03-19T03:27:50;95005.59;;;4.32;68.42
5777;BME280;2914;42.668;23.346;2023-03-19T03:30:20;95008.22;;;4.24;68.84
5777;BME280;2914;42.668;23.346;2023-03-19T03:32:48;95011.28;;;4.10;69.48
5777;BME280;2914;42.668;23.346;2023-03-19T03:35:18;95006.34;;;4.19;69.42
5777;BME280;2914;42.668;23.346;2023-03-19T03:37:49;95004.55;;;4.27;68.96
5777;BME280;2914;42.668;23.346;2023-03-19T03:40:18;95005.95;;;4.25;68.78
5777;BME280;2914;42.668;23.346;2023-03-19T03:42:48;95004.01;;;4.29;68.56
5777;BME280;2914;42.668;23.346;2023-03-19T03:45:17;95012.03;;;4.26;68.56
5777;BME280;2914;42.668;23.346;2023-03-19T03:47:46;95007.83;;;4.23;68.68
5777;BME280;2914;42.668;23.346;2023-03-19T03:50:15;95011.56;;;4.19;68.88
5777;BME280;2914;42.668;23.346;2023-03-19T03:52:45;95015.09;;;4.18;69.87
5777;BME280;2914;42.668;23.346;2023-03-19T03:55:14;95018.09;;;4.19;69.79
5777;BME280;2914;42.668;23.346;2023-03-19T03:57:43;95018.47;;;4.20;69.09
5777;BME280;2914;42.668;23.346;2023-03-19T04:00:14;95018.44;;;4.13;68.99
5777;BME280;2914;42.668;23.346;2023-03-19T04:02:43;95023.13;;;4.22;68.86
5777;BME280;2914;42.668;23.346;2023-03-19T04:05:12;95023.50;;;4.23;68.68
5777;BME280;2914;42.668;23.346;2023-03-19T04:07:41;95019.59;;;4.23;68.87
5777;BME280;2914;42.668;23.346;2023-03-19T04:12:47;95018.28;;;4.16;69.22
5777;BME280;2914;42.668;23.346;2023-03-19T04:15:17;95014.72;;;4.10;69.24
5777;BME280;2914;42.668;23.346;2023-03-19T04:20:24;95012.74;;;4.06;69.35
5777;BME280;2914;42.668;23.346;2023-03-19T04:25:40;95006.50;;;3.95;70.03
5777;BME280;2914;42.668;23.346;2023-03-19T04:30:46;95015.16;;;3.95;70.52
5777;BME280;2914;42.668;23.346;2023-03-19T04:33:15;95014.96;;;3.91;70.45
5777;BME280;2914;42.668;23.346;2023-03-19T04:38:23;95017.52;;;4.00;70.84
5777;BME280;2914;42.668;23.346;2023-03-19T04:40:54;95023.66;;;3.99;70.82
5777;BME280;2914;42.668;23.346;2023-03-19T04:43:24;95028.88;;;3.99;70.91
5777;BME280;2914;42.668;23.346;2023-03-19T04:45:53;95031.67;;;3.96;71.29
5777;BME280;2914;42.668;23.346;2023-03-19T04:48:23;95028.69;;;3.95;71.42
5777;BME280;2914;42.668;23.346;2023-03-19T04:50:52;95026.25;;;3.61;72.17
5777;BME280;2914;42.668;23.346;2023-03-19T04:53:23;95020.78;;;3.66;72.75
5777;BME280;2914;42.668;23.346;2023-03-19T04:55:52;95021.91;;;3.69;72.75
5777;BME280;2914;42.668;23.346;2023-03-19T04:58:21;95014.27;;;3.66;72.98
5777;BME280;2914;42.668;23.346;2023-03-19T05:00:51;95014.50;;;3.54;73.38
5777;BME280;2914;42.668;23.346;2023-03-19T05:03:20;95023.58;;;3.63;73.54
5777;BME280;2914;42.668;23.346;2023-03-19T05:05:49;95026.59;;;3.71;72.78
5777;BME280;2914;42.668;23.346;2023-03-19T05:08:18;95020.52;;;3.78;73.20
5777;BME280;2914;42.668;23.346;2023-03-19T05:10:47;95019.80;;;3.83;73.86
5777;BME280;2914;42.668;23.346;2023-03-19T05:13:16;95026.80;;;3.82;73.55
5777;BME280;2914;42.668;23.346;2023-03-19T05:15:45;95025.78;;;3.85;72.46
5777;BME280;2914;42.668;23.346;2023-03-19T05:18:15;95031.28;;;3.87;71.91
5777;BME280;2914;42.668;23.346;2023-03-19T05:20:44;95028.02;;;3.98;71.45
5777;BME280;2914;42.668;23.346;2023-03-19T05:23:13;95030.67;;;4.13;70.52
5777;BME280;2914;42.668;23.346;2023-03-19T05:25:42;95025.25;;;4.08;69.71
5777;BME280;2914;42.668;23.346;2023-03-19T05:28:13;95032.02;;;3.89;69.68
5777;BME280;2914;42.668;23.346;2023-03-19T05:30:42;95030.25;;;3.60;70.26
5777;BME280;2914;42.668;23.346;2023-03-19T05:33:11;95031.72;;;3.80;69.16
5777;BME280;2914;42.668;23.346;2023-03-19T05:35:40;95022.91;;;3.36;71.17
5777;BME280;2914;42.668;23.346;2023-03-19T05:38:09;95032.08;;;3.04;71.33
5777;BME280;2914;42.668;23.346;2023-03-19T05:40:40;95033.91;;;3.02;71.62
5777;BME280;2914;42.668;23.346;2023-03-19T05:43:11;95031.87;;;3.00;72.89
5777;BME280;2914;42.668;23.346;2023-03-19T05:45:40;95027.72;;;3.28;72.29
5777;BME280;2914;42.668;23.346;2023-03-19T05:48:10;95030.86;;;3.49;71.35
5777;BME280;2914;42.668;23.346;2023-03-19T05:50:39;95033.37;;;3.73;69.93
5777;BME280;2914;42.668;23.346;2023-03-19T05:53:09;95035.11;;;3.89;69.70
5777;BME280;2914;42.668;23.346;2023-03-19T05:55:38;95042.02;;;3.97;70.08
5777;BME280;2914;42.668;23.346;2023-03-19T05:58:07;95043.82;;;4.18;69.94
5777;BME280;2914;42.668;23.346;2023-03-19T06:00:36;95040.11;;;4.73;68.44
5777;BME280;2914;42.668;23.346;2023-03-19T06:03:05;95037.78;;;5.17;66.41
5777;BME280;2914;42.668;23.346;2023-03-19T06:05:34;95043.10;;;5.50;65.39
5777;BME280;2914;42.668;23.346;2023-03-19T06:08:04;95038.83;;;5.89;63.62
5777;BME280;2914;42.668;23.346;2023-03-19T06:13:13;95032.47;;;6.26;60.63
5777;BME280;2914;42.668;23.346;2023-03-19T06:15:42;95033.50;;;6.37;60.95
5777;BME280;2914;42.668;23.346;2023-03-19T06:18:13;95039.30;;;6.60;60.21
5777;BME280;2914;42.668;23.346;2023-03-19T06:20:42;95042.70;;;6.17;60.24
5777;BME280;2914;42.668;23.346;2023-03-19T06:23:12;95046.06;;;6.06;60.84
5777;BME280;2914;42.668;23.346;2023-03-19T06:25:41;95049.30;;;6.09;61.33
5777;BME280;2914;42.668;23.346;2023-03-19T06:28:10;95035.91;;;6.40;61.26
5777;BME280;2914;42.668;23.346;2023-03-19T06:30:40;95047.05;;;6.23;60.22
5777;BME280;2914;42.668;23.346;2023-03-19T06:33:09;95044.73;;;6.39;63.60
5777;BME280;2914;42.668;23.346;2023-03-19T06:35:38;95048.38;;;6.49;60.18
5777;BME280;2914;42.668;23.346;2023-03-19T06:40:46;95055.39;;;7.06;58.38
5777;BME280;2914;42.668;23.346;2023-03-19T06:43:15;95051.99;;;7.29;58.34
5777;BME280;2914;42.668;23.346;2023-03-19T06:45:44;95056.73;;;7.48;55.94
5777;BME280;2914;42.668;23.346;2023-03-19T06:48:14;95059.88;;;6.98;57.19
5777;BME280;2914;42.668;23.346;2023-03-19T06:50:45;95063.02;;;6.72;58.07
5777;BME280;2914;42.668;23.346;2023-03-19T06:53:14;95063.02;;;6.72;58.07
5777;BME280;2914;42.668;23.346;2023-03-19T06:55:45;95076.99;;;6.52;58.41
5777;BME280;2914;42.668;23.346;2023-03-19T06:58:14;95079.11;;;7.04;62.78
5777;BME280;2914;42.668;23.346;2023-03-19T07:00:44;95077.56;;;7.20;58.06
5777;BME280;2914;42.668;23.346;2023-03-19T07:03:13;95077.56;;;7.20;58.06
5777;BME280;2914;42.668;23.346;2023-03-19T07:08:22;95067.19;;;6.87;57.78
5777;BME280;2914;42.668;23.346;2023-03-19T07:10:54;95072.70;;;6.90;57.34
5777;BME280;2914;42.668;23.346;2023-03-19T07:13:29;95072.70;;;6.90;57.34
5777;BME280;2914;42.668;23.346;2023-03-19T07:16:00;95071.20;;;6.99;57.45
5777;BME280;2914;42.668;23.346;2023-03-19T07:18:30;95063.40;;;7.66;58.36
5777;BME280;2914;42.668;23.346;2023-03-19T07:20:59;95071.88;;;7.93;54.83
5777;BME280;2914;42.668;23.346;2023-03-19T07:23:28;95076.50;;;7.60;56.13
5777;BME280;2914;42.668;23.346;2023-03-19T07:25:59;95076.62;;;7.58;54.77
5777;BME280;2914;42.668;23.346;2023-03-19T07:28:28;95056.74;;;7.73;54.96
5777;BME280;2914;42.668;23.346;2023-03-19T07:30:57;95056.74;;;7.73;54.96
5777;BME280;2914;42.668;23.346;2023-03-19T07:33:28;95061.78;;;8.47;53.36
5777;BME280;2914;42.668;23.346;2023-03-19T07:35:57;95061.78;;;8.47;53.36
5777;BME280;2914;42.668;23.346;2023-03-19T07:38:26;95062.30;;;8.75;51.92
5777;BME280;2914;42.668;23.346;2023-03-19T07:40:55;95052.97;;;9.10;65.48
5777;BME280;2914;42.668;23.346;2023-03-19T07:46:16;95058.35;;;9.81;53.38
5777;BME280;2914;42.668;23.346;2023-03-19T07:48:46;95069.61;;;9.77;51.21
5777;BME280;2914;42.668;23.346;2023-03-19T07:53:52;95068.56;;;9.68;49.74
5777;BME280;2914;42.668;23.346;2023-03-19T07:56:21;95072.81;;;9.87;50.08
5777;BME280;2914;42.668;23.346;2023-03-19T08:01:34;95073.58;;;10.37;48.74
5777;BME280;2914;42.668;23.346;2023-03-19T08:04:27;95073.78;;;10.45;49.42
5777;BME280;2914;42.668;23.346;2023-03-19T08:07:00;95075.12;;;10.81;47.53
5777;BME280;2914;42.668;23.346;2023-03-19T08:09:33;95068.56;;;10.91;47.27
5777;BME280;2914;42.668;23.346;2023-03-19T08:12:02;95065.97;;;11.01;45.93
5777;BME280;2914;42.668;23.346;2023-03-19T08:14:32;95063.73;;;10.33;47.31
5777;BME280;2914;42.668;23.346;2023-03-19T08:17:02;95062.61;;;9.88;48.48
5777;BME280;2914;42.668;23.346;2023-03-19T08:19:31;95056.67;;;10.07;47.95
5777;BME280;2914;42.668;23.346;2023-03-19T08:22:00;95058.91;;;9.41;48.91
5777;BME280;2914;42.668;23.346;2023-03-19T08:24:29;95062.19;;;9.71;49.76
5777;BME280;2914;42.668;23.346;2023-03-19T08:26:58;95060.13;;;10.13;49.65
5777;BME280;2914;42.668;23.346;2023-03-19T08:29:28;95059.83;;;10.54;49.60
5777;BME280;2914;42.668;23.346;2023-03-19T08:31:57;95060.42;;;10.73;47.87
5777;BME280;2914;42.668;23.346;2023-03-19T08:34:28;95059.64;;;10.98;46.82
5777;BME280;2914;42.668;23.346;2023-03-19T08:36:57;95058.09;;;11.11;46.37
5777;BME280;2914;42.668;23.346;2023-03-19T08:39:26;95059.22;;;11.18;46.43
5777;BME280;2914;42.668;23.346;2023-03-19T08:41:56;95059.47;;;11.46;46.47
5777;BME280;2914;42.668;23.346;2023-03-19T08:44:25;95050.69;;;11.70;45.66
5777;BME280;2914;42.668;23.346;2023-03-19T08:46:54;95048.64;;;11.59;44.94
5777;BME280;2914;42.668;23.346;2023-03-19T08:49:23;95048.36;;;11.62;44.47
5777;BME280;2914;42.668;23.346;2023-03-19T08:51:52;95037.58;;;11.69;44.77
5777;BME280;2914;42.668;23.346;2023-03-19T08:54:21;95046.02;;;11.68;43.77
5777;BME280;2914;42.668;23.346;2023-03-19T08:56:50;95033.47;;;11.61;44.43
5777;BME280;2914;42.668;23.346;2023-03-19T08:59:23;95027.70;;;11.51;44.56
5777;BME280;2914;42.668;23.346;2023-03-19T09:01:55;95022.34;;;11.47;44.42
5777;BME280;2914;42.668;23.346;2023-03-19T09:07:03;95021.33;;;11.64;43.26
5777;BME280;2914;42.668;23.346;2023-03-19T09:09:33;95022.75;;;11.52;42.61
5777;BME280;2914;42.668;23.346;2023-03-19T09:14:51;95010.48;;;11.77;44.54
5777;BME280;2914;42.668;23.346;2023-03-19T09:17:20;95012.59;;;11.83;42.74
5777;BME280;2914;42.668;23.346;2023-03-19T09:19:49;95007.03;;;12.05;43.83
5777;BME280;2914;42.668;23.346;2023-03-19T09:25:02;95001.19;;;12.21;41.57
5777;BME280;2914;42.668;23.346;2023-03-19T09:30:12;95005.09;;;12.17;42.11
5777;BME280;2914;42.668;23.346;2023-03-19T09:32:42;95001.52;;;12.32;42.05
5777;BME280;2914;42.668;23.346;2023-03-19T09:37:56;95000.56;;;12.47;40.94
5777;BME280;2914;42.668;23.346;2023-03-19T09:40:27;94994.39;;;12.43;41.08
5777;BME280;2914;42.668;23.346;2023-03-19T09:45:48;94994.18;;;12.40;40.90
5777;BME280;2914;42.668;23.346;2023-03-19T09:48:20;94998.63;;;12.16;41.13
5777;BME280;2914;42.668;23.346;2023-03-19T09:50:50;94995.83;;;12.17;41.42
5777;BME280;2914;42.668;23.346;2023-03-19T09:53:22;95000.98;;;12.19;41.22
5777;BME280;2914;42.668;23.346;2023-03-19T09:55:53;94991.46;;;12.02;39.76
5777;BME280;2914;42.668;23.346;2023-03-19T09:58:26;94987.80;;;11.84;40.66
5777;BME280;2914;42.668;23.346;2023-03-19T10:00:56;94986.25;;;11.97;41.16
5777;BME280;2914;42.668;23.346;2023-03-19T10:03:38;94976.63;;;12.05;40.72
5777;BME280;2914;42.668;23.346;2023-03-19T10:06:19;94977.34;;;12.08;41.03
5777;BME280;2914;42.668;23.346;2023-03-19T10:09:01;94979.77;;;12.05;40.18
5777;BME280;2914;42.668;23.346;2023-03-19T10:11:37;94970.44;;;12.11;40.94
5777;BME280;2914;42.668;23.346;2023-03-19T10:14:16;94975.89;;;11.99;40.66
5777;BME280;2914;42.668;23.346;2023-03-19T10:16:47;94968.97;;;12.12;40.83
5777;BME280;2914;42.668;23.346;2023-03-19T10:22:00;94953.85;;;12.28;40.82
5777;BME280;2914;42.668;23.346;2023-03-19T10:24:32;94956.42;;;12.14;40.43
5777;BME280;2914;42.668;23.346;2023-03-19T10:29:46;94947.12;;;12.20;40.60
5777;BME280;2914;42.668;23.346;2023-03-19T10:32:19;94938.06;;;12.13;40.35
5777;BME280;2914;42.668;23.346;2023-03-19T10:37:28;94931.92;;;12.22;39.97
5777;BME280;2914;42.668;23.346;2023-03-19T10:39:59;94927.25;;;12.30;41.04
5777;BME280;2914;42.668;23.346;2023-03-19T10:45:27;94922.81;;;12.44;40.48
5777;BME280;2914;42.668;23.346;2023-03-19T10:47:57;94919.64;;;12.31;39.43
5777;BME280;2914;42.668;23.346;2023-03-19T10:50:30;94909.77;;;12.33;39.77
5777;BME280;2914;42.668;23.346;2023-03-19T10:55:52;94897.16;;;12.41;39.77
5777;BME280;2914;42.668;23.346;2023-03-19T10:58:24;94897.33;;;12.43;39.91
5777;BME280;2914;42.668;23.346;2023-03-19T11:00:57;94890.66;;;12.39;39.59
5777;BME280;2914;42.668;23.346;2023-03-19T11:03:32;94886.42;;;12.42;39.71
5777;BME280;2914;42.668;23.346;2023-03-19T11:06:17;94877.73;;;12.50;40.01
5777;BME280;2914;42.668;23.346;2023-03-19T11:11:40;94877.67;;;12.69;39.06
5777;BME280;2914;42.668;23.346;2023-03-19T11:16:57;94863.64;;;12.59;39.45
5777;BME280;2914;42.668;23.346;2023-03-19T11:19:29;94856.09;;;12.64;39.26
5777;BME280;2914;42.668;23.346;2023-03-19T11:22:06;94858.48;;;12.71;40.09
5777;BME280;2914;42.668;23.346;2023-03-19T11:27:17;94849.50;;;12.96;40.57
5777;BME280;2914;42.668;23.346;2023-03-19T11:29:47;94846.65;;;12.94;40.28
5777;BME280;2914;42.668;23.346;2023-03-19T11:32:24;94846.94;;;13.04;40.07
5777;BME280;2914;42.668;23.346;2023-03-19T11:34:57;94833.42;;;13.12;39.95
5777;BME280;2914;42.668;23.346;2023-03-19T11:37:32;94828.70;;;13.19;39.73
5777;BME280;2914;42.668;23.346;2023-03-19T11:45:38;94825.08;;;13.20;39.17
5777;BME280;2914;42.668;23.346;2023-03-19T11:48:18;94815.81;;;13.20;39.12
5777;BME280;2914;42.668;23.346;2023-03-19T11:53:30;94808.35;;;13.38;38.97
5777;BME280;2914;42.668;23.346;2023-03-19T11:59:00;94802.45;;;13.44;38.28
5777;BME280;2914;42.668;23.346;2023-03-19T12:10:01;94785.23;;;13.44;38.41
5777;BME280;2914;42.668;23.346;2023-03-19T12:12:33;94789.87;;;13.46;38.43
5777;BME280;2914;42.668;23.346;2023-03-19T12:15:10;94786.40;;;13.46;38.46
5777;BME280;2914;42.668;23.346;2023-03-19T12:20:30;94778.00;;;13.54;38.74
5777;BME280;2914;42.668;23.346;2023-03-19T12:26:01;94771.15;;;13.66;38.88
5777;BME280;2914;42.668;23.346;2023-03-19T12:28:34;94768.47;;;13.62;38.95
5777;BME280;2914;42.668;23.346;2023-03-19T12:37:06;94762.66;;;13.62;38.99
5777;BME280;2914;42.668;23.346;2023-03-19T12:39:37;94759.11;;;13.76;39.10
5777;BME280;2914;42.668;23.346;2023-03-19T12:42:11;94749.00;;;13.79;38.87
5777;BME280;2914;42.668;23.346;2023-03-19T12:44:42;94750.54;;;13.86;39.30
5777;BME280;2914;42.668;23.346;2023-03-19T12:47:15;94744.96;;;13.93;39.27
5777;BME280;2914;42.668;23.346;2023-03-19T12:49:47;94741.66;;;13.99;39.02
5777;BME280;2914;42.668;23.346;2023-03-19T12:52:20;94737.06;;;14.05;39.31
5777;BME280;2914;42.668;23.346;2023-03-19T12:54:54;94740.90;;;14.11;38.96
5777;BME280;2914;42.668;23.346;2023-03-19T12:57:26;94732.62;;;14.14;42.94
5777;BME280;2914;42.668;23.346;2023-03-19T12:59:59;94736.09;;;14.15;39.00
5777;BME280;2914;42.668;23.346;2023-03-19T13:02:32;94730.78;;;14.15;38.62
5777;BME280;2914;42.668;23.346;2023-03-19T13:05:05;94729.98;;;14.18;38.87
5777;BME280;2914;42.668;23.346;2023-03-19T13:07:39;94729.00;;;14.19;38.79
5777;BME280;2914;42.668;23.346;2023-03-19T13:10:11;94725.51;;;14.23;38.92
5777;BME280;2914;42.668;23.346;2023-03-19T13:12:41;94725.20;;;14.22;38.44
5777;BME280;2914;42.668;23.346;2023-03-19T13:15:12;94718.07;;;14.27;38.38
5777;BME280;2914;42.668;23.346;2023-03-19T13:17:47;94721.38;;;14.29;39.60
5777;BME280;2914;42.668;23.346;2023-03-19T13:20:23;94722.70;;;14.29;39.28
5777;BME280;2914;42.668;23.346;2023-03-19T13:22:54;94711.13;;;14.34;38.56
5777;BME280;2914;42.668;23.346;2023-03-19T13:28:09;94705.36;;;14.42;38.56
5777;BME280;2914;42.668;23.346;2023-03-19T13:30:39;94709.01;;;14.46;38.62
5777;BME280;2914;42.668;23.346;2023-03-19T13:33:16;94705.52;;;14.49;38.65
5777;BME280;2914;42.668;23.346;2023-03-19T13:35:45;94703.89;;;14.52;38.61
5777;BME280;2914;42.668;23.346;2023-03-19T13:38:18;94701.23;;;14.52;38.52
5777;BME280;2914;42.668;23.346;2023-03-19T13:43:46;94699.75;;;14.62;38.65
5777;BME280;2914;42.668;23.346;2023-03-19T13:46:40;94698.73;;;14.47;38.33
5777;BME280;2914;42.668;23.346;2023-03-19T13:52:47;94690.77;;;14.42;38.40
5777;BME280;2914;42.668;23.346;2023-03-19T13:55:45;94686.27;;;14.39;38.40
5777;BME280;2914;42.668;23.346;2023-03-19T13:58:18;94690.09;;;14.45;38.65
5777;BME280;2914;42.668;23.346;2023-03-19T14:04:23;94671.20;;;14.60;38.56
5777;BME280;2914;42.668;23.346;2023-03-19T14:06:56;94680.48;;;14.60;38.57
5777;BME280;2914;42.668;23.346;2023-03-19T14:12:24;94672.27;;;14.75;39.74
5777;BME280;2914;42.668;23.346;2023-03-19T14:17:35;94673.73;;;14.78;38.66
5777;BME280;2914;42.668;23.346;2023-03-19T14:23:19;94669.62;;;14.92;40.81
5777;BME280;2914;42.668;23.346;2023-03-19T14:26:18;94670.95;;;14.88;39.33
5777;BME280;2914;42.668;23.346;2023-03-19T14:29:01;94670.09;;;14.91;38.90
5777;BME280;2914;42.668;23.346;2023-03-19T14:34:24;94664.61;;;14.93;38.09
5777;BME280;2914;42.668;23.346;2023-03-19T14:39:40;94659.64;;;14.90;38.16
5777;BME280;2914;42.668;23.346;2023-03-19T14:48:50;94653.98;;;14.81;38.24
5777;BME280;2914;42.668;23.346;2023-03-19T14:51:26;94657.16;;;14.84;38.12
5777;BME280;2914;42.668;23.346;2023-03-19T14:53:58;94660.45;;;14.82;38.26
5777;BME280;2914;42.668;23.346;2023-03-19T14:59:11;94652.49;;;14.95;38.27
5777;BME280;2914;42.668;23.346;2023-03-19T15:04:21;94654.50;;;14.97;38.25
5777;BME280;2914;42.668;23.346;2023-03-19T15:06:54;94653.82;;;14.82;38.29
5777;BME280;2914;42.668;23.346;2023-03-19T15:09:26;94654.84;;;14.81;38.18
5777;BME280;2914;42.668;23.346;2023-03-19T15:12:12;94649.02;;;14.90;38.32
5777;BME280;2914;42.668;23.346;2023-03-19T15:14:55;94647.69;;;14.90;38.62
5777;BME280;2914;42.668;23.346;2023-03-19T15:17:26;94660.46;;;14.90;38.76
5777;BME280;2914;42.668;23.346;2023-03-19T15:19:58;94664.61;;;14.85;38.48
5777;BME280;2914;42.668;23.346;2023-03-19T15:22:30;94663.80;;;14.84;38.39
5777;BME280;2914;42.668;23.346;2023-03-19T15:27:43;94666.28;;;14.90;38.51
5777;BME280;2914;42.668;23.346;2023-03-19T15:30:23;94672.27;;;14.84;38.52
5777;BME280;2914;42.668;23.346;2023-03-19T15:32:54;94669.75;;;14.82;38.54
5777;BME280;2914;42.668;23.346;2023-03-19T15:35:27;94664.13;;;14.81;38.44
5777;BME280;2914;42.668;23.346;2023-03-19T15:40:37;94665.28;;;14.74;38.55
5777;BME280;2914;42.668;23.346;2023-03-19T15:43:09;94666.95;;;14.75;38.58
5777;BME280;2914;42.668;23.346;2023-03-19T15:48:21;94667.27;;;14.85;38.40
5777;BME280;2914;42.668;23.346;2023-03-19T15:50:53;94668.59;;;14.85;38.42
5777;BME280;2914;42.668;23.346;2023-03-19T15:53:24;94668.59;;;14.72;38.44
5777;BME280;2914;42.668;23.346;2023-03-19T15:55:55;94672.91;;;14.73;38.53
5777;BME280;2914;42.668;23.346;2023-03-19T15:58:26;94669.91;;;14.72;38.48
5777;BME280;2914;42.668;23.346;2023-03-19T16:00:56;94665.92;;;14.64;38.42
5777;BME280;2914;42.668;23.346;2023-03-19T16:06:12;94664.61;;;14.72;38.42
5777;BME280;2914;42.668;23.346;2023-03-19T16:08:47;94672.52;;;14.60;38.58
5777;BME280;2914;42.668;23.346;2023-03-19T16:11:26;94674.91;;;14.63;38.54
5777;BME280;2914;42.668;23.346;2023-03-19T16:14:00;94673.41;;;14.69;38.53
5777;BME280;2914;42.668;23.346;2023-03-19T16:16:31;94676.23;;;14.67;38.54
5777;BME280;2914;42.668;23.346;2023-03-19T16:19:00;94673.58;;;14.63;38.72
5777;BME280;2914;42.668;23.346;2023-03-19T16:21:32;94682.67;;;14.61;38.82
5777;BME280;2914;42.668;23.346;2023-03-19T16:24:08;94685.80;;;14.60;38.80
5777;BME280;2914;42.668;23.346;2023-03-19T16:26:39;94681.65;;;14.62;39.26
5777;BME280;2914;42.668;23.346;2023-03-19T16:29:19;94676.23;;;14.63;39.85
5777;BME280;2914;42.668;23.346;2023-03-19T16:31:51;94687.16;;;14.64;40.52
5777;BME280;2914;42.668;23.346;2023-03-19T16:34:27;94680.22;;;14.63;41.11
5777;BME280;2914;42.668;23.346;2023-03-19T16:39:50;94677.67;;;14.62;41.98
5777;BME280;2914;42.668;23.346;2023-03-19T16:42:28;94682.14;;;14.53;42.36
5777;BME280;2914;42.668;23.346;2023-03-19T16:45:01;94692.11;;;14.51;42.42
5777;BME280;2914;42.668;23.346;2023-03-19T16:47:31;94683.96;;;14.44;42.67